createdAt,value
2019-02-05T00:00:52.583Z,1013.80
2019-02-05T00:01:52.527Z,1013.84
2019-02-05T00:02:52.547Z,1013.84
2019-02-05T00:03:52.509Z,1013.93
2019-02-05T00:04:52.494Z,1013.85
2019-02-05T00:05:52.486Z,1013.94
2019-02-05T00:06:52.474Z,1013.89
2019-02-05T00:07:52.510Z,1013.86
2019-02-05T00:08:52.447Z,1013.85
2019-02-05T00:09:52.442Z,1013.84
2019-02-05T00:10:52.428Z,1013.80
2019-02-05T00:11:52.420Z,1013.85
2019-02-05T00:12:52.415Z,1013.84
2019-02-05T00:13:52.436Z,1013.85
2019-02-05T00:14:52.387Z,1013.82
2019-02-05T00:15:52.374Z,1013.80
2019-02-05T00:16:52.374Z,1013.71
2019-02-05T00:17:52.353Z,1013.79
2019-02-05T00:18:52.372Z,1013.79
2019-02-05T00:19:52.328Z,1013.81
2019-02-05T00:20:52.327Z,1013.77
2019-02-05T00:21:52.310Z,1013.85
2019-02-05T00:22:52.298Z,1013.82
2019-02-05T00:23:52.326Z,1013.82
2019-02-05T00:24:52.273Z,1013.79
2019-02-05T00:25:52.271Z,1013.74
2019-02-05T00:26:52.263Z,1013.74
2019-02-05T00:27:52.241Z,1013.71
2019-02-05T00:28:52.250Z,1013.72
2019-02-05T00:29:52.259Z,1013.67
2019-02-05T00:30:52.220Z,1013.70
2019-02-05T00:31:52.199Z,1013.61
2019-02-05T00:32:52.195Z,1013.66
2019-02-05T00:33:52.177Z,1013.64
2019-02-05T00:34:52.199Z,1013.64
2019-02-05T00:35:52.196Z,1013.55
2019-02-05T00:36:52.165Z,1013.56
2019-02-05T00:37:52.138Z,1013.54
2019-02-05T00:38:52.130Z,1013.60
2019-02-05T00:39:52.179Z,1013.63
2019-02-05T00:40:52.104Z,1013.56
2019-02-05T00:41:52.093Z,1013.52
2019-02-05T00:42:52.091Z,1013.45
2019-02-05T00:43:52.077Z,1013.43
2019-02-05T00:44:52.092Z,1013.46
2019-02-05T00:45:52.074Z,1013.43
2019-02-05T00:46:52.039Z,1013.42
2019-02-05T00:47:52.028Z,1013.41
2019-02-05T00:48:52.021Z,1013.51
2019-02-05T00:49:52.023Z,1013.47
2019-02-05T00:50:52.036Z,1013.49
2019-02-05T00:51:51.986Z,1013.44
2019-02-05T00:52:52.011Z,1013.50
2019-02-05T00:53:51.970Z,1013.53
2019-02-05T00:54:51.952Z,1013.57
2019-02-05T00:55:51.946Z,1013.62
2019-02-05T00:56:51.933Z,1013.62
2019-02-05T00:57:51.961Z,1013.63
2019-02-05T00:58:51.909Z,1013.56
2019-02-05T00:59:51.896Z,1013.55
2019-02-05T01:00:51.888Z,1013.50
2019-02-05T01:01:51.915Z,1013.54
2019-02-05T01:02:51.871Z,1013.47
2019-02-05T01:03:51.851Z,1013.46
2019-02-05T01:04:51.844Z,1013.49
2019-02-05T01:05:51.834Z,1013.52
2019-02-05T01:06:51.896Z,1013.49
2019-02-05T01:07:51.819Z,1013.53
2019-02-05T01:08:51.801Z,1013.58
2019-02-05T01:09:51.796Z,1013.56
2019-02-05T01:10:51.774Z,1013.51
2019-02-05T01:11:51.807Z,1013.54
2019-02-05T01:12:51.766Z,1013.50
2019-02-05T01:13:51.752Z,1013.47
2019-02-05T01:14:51.737Z,1013.52
2019-02-05T01:15:51.730Z,1013.52
2019-02-05T01:16:51.755Z,1013.48
2019-02-05T01:17:51.751Z,1013.55
2019-02-05T01:18:51.703Z,1013.46
2019-02-05T01:19:51.689Z,1013.48
2019-02-05T01:20:51.666Z,1013.48
2019-02-05T01:21:51.812Z,1013.41
2019-02-05T01:22:51.683Z,1013.41
2019-02-05T01:23:51.687Z,1013.38
2019-02-05T01:24:51.628Z,1013.35
2019-02-05T01:25:51.621Z,1013.45
2019-02-05T01:26:51.607Z,1013.31
2019-02-05T01:27:51.724Z,1013.32
2019-02-05T01:28:51.595Z,1013.35
2019-02-05T01:29:51.582Z,1013.33
2019-02-05T01:30:51.564Z,1013.34
2019-02-05T01:31:51.554Z,1013.37
2019-02-05T01:32:51.626Z,1013.33
2019-02-05T01:33:51.546Z,1013.32
2019-02-05T01:34:51.537Z,1013.31
2019-02-05T01:35:51.520Z,1013.40
2019-02-05T01:36:51.535Z,1013.39
2019-02-05T01:37:51.495Z,1013.28
2019-02-05T01:38:51.534Z,1013.30
2019-02-05T01:39:51.473Z,1013.24
2019-02-05T01:40:51.459Z,1013.30
2019-02-05T01:41:51.444Z,1013.29
2019-02-05T01:42:51.446Z,1013.34
2019-02-05T01:43:51.457Z,1013.28
2019-02-05T01:44:51.423Z,1013.28
2019-02-05T01:45:51.398Z,1013.26
2019-02-05T01:46:51.397Z,1013.31
2019-02-05T01:47:51.385Z,1013.22
2019-02-05T01:48:51.403Z,1013.27
2019-02-05T01:49:51.355Z,1013.18
2019-02-05T01:50:51.350Z,1013.21
2019-02-05T01:51:51.333Z,1013.18
2019-02-05T01:52:51.325Z,1013.20
2019-02-05T01:53:51.340Z,1013.15
2019-02-05T01:54:51.333Z,1013.19
2019-02-05T01:55:51.290Z,1013.19
2019-02-05T01:56:51.284Z,1013.13
2019-02-05T01:57:51.270Z,1013.22
2019-02-05T01:58:51.267Z,1013.19
2019-02-05T01:59:51.275Z,1013.16
2019-02-05T02:00:51.245Z,1013.24
2019-02-05T02:01:51.230Z,1013.24
2019-02-05T02:02:51.215Z,1013.22
2019-02-05T02:03:51.215Z,1013.20
2019-02-05T02:04:51.233Z,1013.20
2019-02-05T02:05:51.184Z,1013.24
2019-02-05T02:06:51.168Z,1013.13
2019-02-05T02:07:51.166Z,1013.16
2019-02-05T02:08:51.147Z,1013.16
2019-02-05T02:09:51.157Z,1013.14
2019-02-05T02:10:51.150Z,1013.15
2019-02-05T02:11:51.119Z,1013.11
2019-02-05T02:12:51.112Z,1013.14
2019-02-05T02:13:51.103Z,1013.10
2019-02-05T02:14:51.087Z,1013.10
2019-02-05T02:15:51.108Z,1013.13
2019-02-05T02:16:51.083Z,1013.04
2019-02-05T02:17:51.051Z,1013.09
2019-02-05T02:18:51.043Z,1013.11
2019-02-05T02:19:51.052Z,1013.05
2019-02-05T02:20:51.068Z,1013.09
2019-02-05T02:21:51.061Z,1013.08
2019-02-05T02:22:51.012Z,1013.10
2019-02-05T02:23:50.988Z,1013.05
2019-02-05T02:24:50.976Z,1013.10
2019-02-05T02:25:50.982Z,1013.05
2019-02-05T02:26:52.359Z,1013.04
2019-02-05T02:27:50.963Z,1013.05
2019-02-05T02:28:50.972Z,1013.01
2019-02-05T02:29:50.920Z,1012.97
2019-02-05T02:30:50.915Z,1012.88
2019-02-05T02:31:50.912Z,1012.94
2019-02-05T02:32:50.898Z,1012.99
2019-02-05T02:33:50.926Z,1012.91
2019-02-05T02:34:50.878Z,1012.94
2019-02-05T02:35:50.863Z,1012.85
2019-02-05T02:36:50.885Z,1012.90
2019-02-05T02:37:50.833Z,1012.82
2019-02-05T02:38:50.829Z,1012.79
2019-02-05T02:39:50.820Z,1012.80
2019-02-05T02:40:50.807Z,1012.74
2019-02-05T02:41:50.820Z,1012.79
2019-02-05T02:42:50.810Z,1012.74
2019-02-05T02:43:50.772Z,1012.78
2019-02-05T02:44:50.771Z,1012.75
2019-02-05T02:45:50.767Z,1012.71
2019-02-05T02:46:50.745Z,1012.73
2019-02-05T02:47:50.752Z,1012.71
2019-02-05T02:48:50.721Z,1012.78
2019-02-05T02:49:50.712Z,1012.76
2019-02-05T02:50:50.693Z,1012.68
2019-02-05T02:51:50.684Z,1012.67
2019-02-05T02:52:50.708Z,1012.69
2019-02-05T02:53:50.661Z,1012.70
2019-02-05T02:54:50.658Z,1012.63
2019-02-05T02:55:50.658Z,1012.67
2019-02-05T02:56:50.640Z,1012.69
2019-02-05T02:57:50.668Z,1012.67
2019-02-05T02:58:50.649Z,1012.77
2019-02-05T02:59:50.599Z,1012.74
2019-02-05T03:00:50.597Z,1012.70
2019-02-05T03:01:50.577Z,1012.74
2019-02-05T03:02:50.567Z,1012.75
2019-02-05T03:03:50.586Z,1012.72
2019-02-05T03:04:50.597Z,1012.77
2019-02-05T03:05:50.535Z,1012.68
2019-02-05T03:06:50.534Z,1012.69
2019-02-05T03:07:50.510Z,1012.67
2019-02-05T03:08:50.501Z,1012.71
2019-02-05T03:09:50.538Z,1012.75
2019-02-05T03:10:50.485Z,1012.71
2019-02-05T03:11:50.472Z,1012.68
2019-02-05T03:12:50.462Z,1012.70
2019-02-05T03:13:50.449Z,1012.65
2019-02-05T03:14:50.481Z,1012.66
2019-02-05T03:15:50.438Z,1012.66
2019-02-05T03:16:50.504Z,1012.65
2019-02-05T03:17:50.513Z,1012.58
2019-02-05T03:18:50.410Z,1012.70
2019-02-05T03:19:50.414Z,1012.66
2019-02-05T03:20:50.378Z,1012.64
2019-02-05T03:21:50.363Z,1012.67
2019-02-05T03:22:50.352Z,1012.65
2019-02-05T03:23:50.340Z,1012.70
2019-02-05T03:24:50.349Z,1012.76
2019-02-05T03:25:50.359Z,1012.74
2019-02-05T03:26:50.309Z,1012.71
2019-02-05T03:27:53.556Z,1012.71
2019-02-05T03:28:50.285Z,1012.62
2019-02-05T03:29:50.284Z,1012.59
2019-02-05T03:30:50.300Z,1012.62
2019-02-05T03:31:50.282Z,1012.63
2019-02-05T03:32:50.251Z,1012.59
2019-02-05T03:33:50.255Z,1012.64
2019-02-05T03:34:50.219Z,1012.72
2019-02-05T03:35:50.248Z,1012.71
2019-02-05T03:36:50.203Z,1012.72
2019-02-05T03:37:50.202Z,1012.69
2019-02-05T03:38:50.186Z,1012.72
2019-02-05T03:39:50.172Z,1012.79
2019-02-05T03:40:50.168Z,1012.88
2019-02-05T03:41:50.222Z,1012.79
2019-02-05T03:42:50.137Z,1012.84
2019-02-05T03:43:50.155Z,1012.86
2019-02-05T03:44:50.127Z,1012.78
2019-02-05T03:45:50.100Z,1012.81
2019-02-05T03:46:50.138Z,1012.87
2019-02-05T03:47:50.078Z,1012.85
2019-02-05T03:48:50.101Z,1012.89
2019-02-05T03:49:50.068Z,1012.95
2019-02-05T03:50:50.077Z,1012.88
2019-02-05T03:51:50.078Z,1012.94
2019-02-05T03:52:50.027Z,1012.86
2019-02-05T03:53:50.020Z,1012.83
2019-02-05T03:54:50.022Z,1012.90
2019-02-05T03:55:49.999Z,1012.82
2019-02-05T03:56:49.986Z,1012.79
2019-02-05T03:57:49.999Z,1012.87
2019-02-05T03:58:49.968Z,1012.85
2019-02-05T03:59:49.969Z,1012.88
2019-02-05T04:00:49.948Z,1012.86
2019-02-05T04:01:49.936Z,1012.87
2019-02-05T04:02:49.961Z,1012.82
2019-02-05T04:03:49.925Z,1012.80
2019-02-05T04:04:49.903Z,1012.73
2019-02-05T04:05:49.897Z,1012.76
2019-02-05T04:06:49.893Z,1012.80
2019-02-05T04:07:49.899Z,1012.72
2019-02-05T04:08:49.858Z,1012.76
2019-02-05T04:09:49.848Z,1012.76
2019-02-05T04:10:49.833Z,1012.82
2019-02-05T04:11:49.841Z,1012.86
2019-02-05T04:12:49.856Z,1012.85
2019-02-05T04:13:49.809Z,1012.87
2019-02-05T04:14:49.799Z,1012.84
2019-02-05T04:15:49.787Z,1012.80
2019-02-05T04:16:49.772Z,1012.84
2019-02-05T04:17:49.777Z,1012.88
2019-02-05T04:18:49.784Z,1012.87
2019-02-05T04:19:49.753Z,1012.86
2019-02-05T04:20:49.740Z,1012.85
2019-02-05T04:21:49.725Z,1012.87
2019-02-05T04:22:49.706Z,1012.89
2019-02-05T04:23:49.718Z,1012.94
2019-02-05T04:24:49.683Z,1012.92
2019-02-05T04:25:49.683Z,1012.93
2019-02-05T04:26:49.666Z,1013.01
2019-02-05T04:27:49.655Z,1013.14
2019-02-05T04:28:49.684Z,1013.20
2019-02-05T04:29:49.634Z,1013.23
2019-02-05T04:30:49.623Z,1013.13
2019-02-05T04:31:49.655Z,1013.19
2019-02-05T04:32:49.613Z,1013.22
2019-02-05T04:33:49.610Z,1013.27
2019-02-05T04:34:49.606Z,1013.25
2019-02-05T04:35:49.573Z,1013.29
2019-02-05T04:36:49.555Z,1013.27
2019-02-05T04:37:49.560Z,1013.34
2019-02-05T04:38:49.564Z,1013.35
2019-02-05T04:39:49.561Z,1013.35
2019-02-05T04:40:49.517Z,1013.38
2019-02-05T04:41:49.506Z,1013.38
2019-02-05T04:42:49.489Z,1013.39
2019-02-05T04:43:49.490Z,1013.37
2019-02-05T04:44:49.531Z,1013.39
2019-02-05T04:45:49.465Z,1013.25
2019-02-05T04:46:49.453Z,1013.25
2019-02-05T04:47:49.450Z,1013.29
2019-02-05T04:48:49.423Z,1013.23
2019-02-05T04:49:49.468Z,1013.17
2019-02-05T04:50:49.411Z,1013.15
2019-02-05T04:51:49.397Z,1013.11
2019-02-05T04:52:49.380Z,1013.12
2019-02-05T04:53:49.378Z,1013.13
2019-02-05T04:54:49.361Z,1013.06
2019-02-05T04:55:49.393Z,1013.04
2019-02-05T04:56:49.344Z,1013.13
2019-02-05T04:57:58.018Z,1013.11
2019-02-05T04:58:50.339Z,1013.01
2019-02-05T04:59:49.325Z,1013.15
2019-02-05T05:00:49.323Z,1013.13
2019-02-05T05:01:49.291Z,1013.10
2019-02-05T05:02:49.284Z,1013.05
2019-02-05T05:03:49.271Z,1013.03
2019-02-05T05:04:49.275Z,1012.92
2019-02-05T05:05:49.285Z,1012.90
2019-02-05T05:06:49.230Z,1012.93
2019-02-05T05:07:49.232Z,1012.93
2019-02-05T05:08:49.213Z,1012.94
2019-02-05T05:09:49.231Z,1012.92
2019-02-05T05:10:49.203Z,1012.97
2019-02-05T05:11:49.205Z,1012.92
2019-02-05T05:12:49.174Z,1012.90
2019-02-05T05:13:49.189Z,1012.94
2019-02-05T05:14:49.261Z,1012.95
2019-02-05T05:15:49.134Z,1012.89
2019-02-05T05:16:49.163Z,1012.86
2019-02-05T05:17:49.117Z,1012.84
2019-02-05T05:18:49.116Z,1012.87
2019-02-05T05:19:49.096Z,1012.94
2019-02-05T05:20:49.080Z,1012.90
2019-02-05T05:21:49.079Z,1012.91
2019-02-05T05:22:49.086Z,1012.82
2019-02-05T05:23:49.054Z,1012.88
2019-02-05T05:24:49.047Z,1012.89
2019-02-05T05:25:49.032Z,1012.91
2019-02-05T05:26:49.051Z,1012.94
2019-02-05T05:27:49.044Z,1012.92
2019-02-05T05:28:49.014Z,1012.88
2019-02-05T05:29:48.997Z,1012.82
2019-02-05T05:30:48.989Z,1012.87
2019-02-05T05:31:48.972Z,1012.90
2019-02-05T05:32:48.994Z,1012.82
2019-02-05T05:33:48.952Z,1012.84
2019-02-05T05:34:48.939Z,1012.72
2019-02-05T05:35:48.925Z,1012.69
2019-02-05T05:36:48.917Z,1012.78
2019-02-05T05:37:48.933Z,1012.77
2019-02-05T05:38:48.913Z,1012.75
2019-02-05T05:39:48.880Z,1012.72
2019-02-05T05:40:48.874Z,1012.73
2019-02-05T05:41:48.856Z,1012.69
2019-02-05T05:42:48.884Z,1012.68
2019-02-05T05:43:48.842Z,1012.65
2019-02-05T05:44:48.835Z,1012.70
2019-02-05T05:45:48.823Z,1012.68
2019-02-05T05:46:48.822Z,1012.71
2019-02-05T05:47:48.816Z,1012.75
2019-02-05T05:48:48.828Z,1012.69
2019-02-05T05:49:48.791Z,1012.76
2019-02-05T05:50:48.809Z,1012.72
2019-02-05T05:51:48.754Z,1012.69
2019-02-05T05:52:48.806Z,1012.70
2019-02-05T05:53:48.754Z,1012.72
2019-02-05T05:54:48.724Z,1012.68
2019-02-05T05:55:48.712Z,1012.69
2019-02-05T05:56:48.701Z,1012.70
2019-02-05T05:57:48.724Z,1012.75
2019-02-05T05:58:48.737Z,1012.76
2019-02-05T05:59:48.665Z,1012.76
2019-02-05T06:00:48.707Z,1012.72
2019-02-05T06:01:48.655Z,1012.69
2019-02-05T06:02:48.636Z,1012.70
2019-02-05T06:03:48.626Z,1012.71
2019-02-05T06:04:48.620Z,1012.70
2019-02-05T06:05:48.634Z,1012.69
2019-02-05T06:06:48.629Z,1012.74
2019-02-05T06:07:48.597Z,1012.71
2019-02-05T06:08:48.574Z,1012.74
2019-02-05T06:09:48.581Z,1012.73
2019-02-05T06:10:48.554Z,1012.79
2019-02-05T06:11:48.542Z,1012.76
2019-02-05T06:12:48.532Z,1012.85
2019-02-05T06:13:48.513Z,1012.82
2019-02-05T06:14:48.538Z,1012.77
2019-02-05T06:15:48.516Z,1012.74
2019-02-05T06:16:48.482Z,1012.82
2019-02-05T06:17:48.477Z,1012.75
2019-02-05T06:18:48.468Z,1012.73
2019-02-05T06:19:48.457Z,1012.76
2019-02-05T06:20:48.479Z,1012.71
2019-02-05T06:21:48.436Z,1012.70
2019-02-05T06:22:48.426Z,1012.79
2019-02-05T06:23:48.411Z,1012.73
2019-02-05T06:24:48.400Z,1012.83
2019-02-05T06:25:48.424Z,1012.81
2019-02-05T06:26:48.376Z,1012.78
2019-02-05T06:27:48.376Z,1012.89
2019-02-05T06:28:48.356Z,1012.82
2019-02-05T06:29:48.348Z,1012.80
2019-02-05T06:30:48.369Z,1012.79
2019-02-05T06:31:48.326Z,1012.78
2019-02-05T06:32:48.446Z,1012.75
2019-02-05T06:33:48.307Z,1012.77
2019-02-05T06:34:48.296Z,1012.80
2019-02-05T06:35:48.287Z,1012.73
2019-02-05T06:36:48.297Z,1012.75
2019-02-05T06:37:48.260Z,1012.71
2019-02-05T06:38:48.253Z,1012.67
2019-02-05T06:39:48.251Z,1012.74
2019-02-05T06:40:48.231Z,1012.78
2019-02-05T06:41:48.258Z,1012.80
2019-02-05T06:42:48.214Z,1012.78
2019-02-05T06:43:48.194Z,1012.80
2019-02-05T06:44:48.193Z,1012.73
2019-02-05T06:45:48.186Z,1012.74
2019-02-05T06:46:48.199Z,1012.72
2019-02-05T06:47:48.162Z,1012.74
2019-02-05T06:48:48.144Z,1012.70
2019-02-05T06:49:48.135Z,1012.85
2019-02-05T06:50:48.116Z,1012.80
2019-02-05T06:51:48.108Z,1012.84
2019-02-05T06:52:48.149Z,1012.83
2019-02-05T06:53:48.101Z,1012.85
2019-02-05T06:54:48.085Z,1012.78
2019-02-05T06:55:48.067Z,1012.81
2019-02-05T06:56:48.052Z,1012.82
2019-02-05T06:57:48.093Z,1012.80
2019-02-05T06:58:48.069Z,1012.87
2019-02-05T06:59:48.030Z,1012.81
2019-02-05T07:00:48.021Z,1012.92
2019-02-05T07:01:48.009Z,1012.87
2019-02-05T07:02:47.996Z,1012.87
2019-02-05T07:03:48.031Z,1012.82
2019-02-05T07:04:47.972Z,1012.80
2019-02-05T07:05:47.957Z,1012.85
2019-02-05T07:06:47.957Z,1012.81
2019-02-05T07:07:47.947Z,1012.81
2019-02-05T07:08:47.977Z,1012.76
2019-02-05T07:09:47.921Z,1012.77
2019-02-05T07:10:47.906Z,1012.73
2019-02-05T07:11:47.896Z,1012.76
2019-02-05T07:12:47.884Z,1012.79
2019-02-05T07:13:47.901Z,1012.78
2019-02-05T07:14:47.892Z,1012.83
2019-02-05T07:15:47.910Z,1012.84
2019-02-05T07:16:47.847Z,1012.82
2019-02-05T07:17:50.205Z,1012.83
2019-02-05T07:18:47.822Z,1012.85
2019-02-05T07:19:47.889Z,1012.84
2019-02-05T07:20:47.841Z,1012.77
2019-02-05T07:21:47.788Z,1012.77
2019-02-05T07:22:47.784Z,1012.76
2019-02-05T07:23:47.771Z,1012.76
2019-02-05T07:24:47.799Z,1012.76
2019-02-05T07:25:47.746Z,1012.75
2019-02-05T07:26:47.736Z,1012.75
2019-02-05T07:27:47.719Z,1012.90
2019-02-05T07:28:57.966Z,1012.86
2019-02-05T07:29:48.744Z,1012.99
2019-02-05T07:30:47.691Z,1012.88
2019-02-05T07:31:47.688Z,1012.97
2019-02-05T07:32:47.678Z,1012.91
2019-02-05T07:33:47.659Z,1012.95
2019-02-05T07:34:47.653Z,1012.99
2019-02-05T07:35:47.666Z,1013.05
2019-02-05T07:36:47.625Z,1013.11
2019-02-05T07:37:47.619Z,1013.11
2019-02-05T07:38:47.612Z,1013.11
2019-02-05T07:39:47.662Z,1013.20
2019-02-05T07:40:47.621Z,1013.19
2019-02-05T07:41:47.579Z,1013.27
2019-02-05T07:42:47.558Z,1013.31
2019-02-05T07:43:47.565Z,1013.34
2019-02-05T07:44:47.553Z,1013.30
2019-02-05T07:45:47.571Z,1013.34
2019-02-05T07:46:47.521Z,1013.33
2019-02-05T07:47:47.510Z,1013.45
2019-02-05T07:48:47.497Z,1013.38
2019-02-05T07:49:47.487Z,1013.43
2019-02-05T07:50:47.509Z,1013.42
2019-02-05T07:51:47.489Z,1013.45
2019-02-05T07:52:47.454Z,1013.40
2019-02-05T07:53:47.452Z,1013.41
2019-02-05T07:54:47.438Z,1013.37
2019-02-05T07:55:47.439Z,1013.42
2019-02-05T07:56:47.451Z,1013.42
2019-02-05T07:57:47.406Z,1013.48
2019-02-05T07:58:47.391Z,1013.46
2019-02-05T07:59:47.442Z,1013.45
2019-02-05T08:00:47.373Z,1013.36
2019-02-05T08:01:47.401Z,1013.41
2019-02-05T08:02:47.357Z,1013.48
2019-02-05T08:03:47.340Z,1013.51
2019-02-05T08:04:47.332Z,1013.50
2019-02-05T08:05:47.339Z,1013.51
2019-02-05T08:06:47.307Z,1013.60
2019-02-05T08:07:47.320Z,1013.53
2019-02-05T08:08:47.288Z,1013.51
2019-02-05T08:09:47.278Z,1013.53
2019-02-05T08:10:47.264Z,1013.50
2019-02-05T08:11:47.257Z,1013.50
2019-02-05T08:12:47.311Z,1013.48
2019-02-05T08:13:47.238Z,1013.45
2019-02-05T08:14:47.227Z,1013.53
2019-02-05T08:15:47.213Z,1013.54
2019-02-05T08:16:47.917Z,1013.50
2019-02-05T08:17:47.227Z,1013.43
2019-02-05T08:18:47.182Z,1013.52
2019-02-05T08:19:47.170Z,1013.57
2019-02-05T08:20:47.159Z,1013.65
2019-02-05T08:21:47.147Z,1013.55
2019-02-05T08:22:47.135Z,1013.59
2019-02-05T08:23:47.157Z,1013.53
2019-02-05T08:24:47.111Z,1013.43
2019-02-05T08:25:47.128Z,1013.54
2019-02-05T08:26:47.100Z,1013.56
2019-02-05T08:27:47.079Z,1013.58
2019-02-05T08:28:48.306Z,1013.66
2019-02-05T08:29:47.056Z,1013.69
2019-02-05T08:30:47.047Z,1013.69
2019-02-05T08:31:47.039Z,1013.70
2019-02-05T08:32:47.036Z,1013.65
2019-02-05T08:33:47.035Z,1013.63
2019-02-05T08:34:47.007Z,1013.67
2019-02-05T08:35:46.996Z,1013.78
2019-02-05T08:36:46.991Z,1013.72
2019-02-05T08:37:46.976Z,1013.76
2019-02-05T08:38:47.006Z,1013.71
2019-02-05T08:39:46.954Z,1013.75
2019-02-05T08:40:46.952Z,1013.75
2019-02-05T08:41:46.928Z,1013.79
2019-02-05T08:42:46.927Z,1013.72
2019-02-05T08:43:46.909Z,1013.73
2019-02-05T08:44:46.940Z,1013.80
2019-02-05T08:45:56.263Z,1013.73
2019-02-05T08:46:47.877Z,1013.77
2019-02-05T08:47:46.865Z,1013.79
2019-02-05T08:48:46.855Z,1013.77
2019-02-05T08:49:46.875Z,1013.80
2019-02-05T08:50:46.843Z,1013.79
2019-02-05T08:51:46.825Z,1013.80
2019-02-05T08:52:46.814Z,1013.84
2019-02-05T08:53:46.805Z,1013.86
2019-02-05T08:54:46.821Z,1013.81
2019-02-05T08:55:46.783Z,1013.85
2019-02-05T08:56:46.770Z,1013.88
2019-02-05T08:57:46.765Z,1013.88
2019-02-05T08:58:46.754Z,1013.91
2019-02-05T08:59:46.786Z,1013.88
2019-02-05T09:00:46.759Z,1013.95
2019-02-05T09:01:46.742Z,1013.89
2019-02-05T09:02:46.710Z,1013.85
2019-02-05T09:03:46.706Z,1013.92
2019-02-05T09:04:46.690Z,1013.89
2019-02-05T09:05:46.717Z,1013.83
2019-02-05T09:06:46.675Z,1013.90
2019-02-05T09:07:46.662Z,1013.90
2019-02-05T09:08:46.678Z,1013.85
2019-02-05T09:09:46.630Z,1013.91
2019-02-05T09:10:46.636Z,1013.89
2019-02-05T09:11:46.638Z,1013.92
2019-02-05T09:12:46.612Z,1013.87
2019-02-05T09:13:46.593Z,1013.92
2019-02-05T09:14:46.577Z,1013.83
2019-02-05T09:15:46.691Z,1013.84
2019-02-05T09:16:46.561Z,1013.75
2019-02-05T09:17:46.552Z,1013.80
2019-02-05T09:18:46.558Z,1013.77
2019-02-05T09:19:46.526Z,1013.75
2019-02-05T09:20:46.521Z,1013.80
2019-02-05T09:21:46.540Z,1013.75
2019-02-05T09:22:46.489Z,1013.74
2019-02-05T09:23:46.484Z,1013.79
2019-02-05T09:24:46.466Z,1013.69
2019-02-05T09:25:46.457Z,1013.75
2019-02-05T09:26:46.497Z,1013.82
2019-02-05T09:27:46.440Z,1013.80
2019-02-05T09:28:46.424Z,1013.82
2019-02-05T09:29:46.416Z,1013.84
2019-02-05T09:30:46.409Z,1013.84
2019-02-05T09:31:46.388Z,1013.80
2019-02-05T09:32:46.433Z,1013.87
2019-02-05T09:33:46.374Z,1013.82
2019-02-05T09:34:46.444Z,1013.80
2019-02-05T09:35:46.350Z,1013.87
2019-02-05T09:36:46.339Z,1013.87
2019-02-05T09:37:46.384Z,1013.89
2019-02-05T09:38:46.323Z,1013.88
2019-02-05T09:39:46.383Z,1013.90
2019-02-05T09:40:46.307Z,1013.87
2019-02-05T09:41:46.278Z,1013.95
2019-02-05T09:42:46.271Z,1013.92
2019-02-05T09:43:46.312Z,1013.97
2019-02-05T09:44:46.249Z,1013.98
2019-02-05T09:45:46.236Z,1013.99
2019-02-05T09:46:46.253Z,1014.01
2019-02-05T09:47:46.215Z,1014.00
2019-02-05T09:48:46.218Z,1013.99
2019-02-05T09:49:46.226Z,1014.07
2019-02-05T09:50:46.179Z,1014.08
2019-02-05T09:51:46.215Z,1014.17
2019-02-05T09:52:46.158Z,1014.13
2019-02-05T09:53:46.203Z,1014.12
2019-02-05T09:54:46.170Z,1014.11
2019-02-05T09:55:46.124Z,1014.05
2019-02-05T09:56:46.115Z,1014.10
2019-02-05T09:57:46.121Z,1014.09
2019-02-05T09:58:46.091Z,1014.14
2019-02-05T09:59:46.080Z,1014.17
2019-02-05T10:00:46.097Z,1014.14
2019-02-05T10:01:46.062Z,1014.11
2019-02-05T10:02:46.048Z,1014.19
2019-02-05T10:03:46.046Z,1014.19
2019-02-05T10:04:46.033Z,1014.23
2019-02-05T10:05:46.069Z,1014.20
2019-02-05T10:06:46.012Z,1014.23
2019-02-05T10:07:45.991Z,1014.33
2019-02-05T10:08:45.990Z,1014.33
2019-02-05T10:09:45.981Z,1014.33
2019-02-05T10:10:45.997Z,1014.24
2019-02-05T10:11:45.968Z,1014.29
2019-02-05T10:12:46.996Z,1014.33
2019-02-05T10:13:45.924Z,1014.32
2019-02-05T10:14:45.938Z,1014.36
2019-02-05T10:15:45.911Z,1014.35
2019-02-05T10:16:45.933Z,1014.39
2019-02-05T10:17:45.907Z,1014.35
2019-02-05T10:18:46.205Z,1014.30
2019-02-05T10:19:45.864Z,1014.34
2019-02-05T10:20:45.901Z,1014.29
2019-02-05T10:21:45.870Z,1014.31
2019-02-05T10:22:45.828Z,1014.24
2019-02-05T10:23:45.818Z,1014.23
2019-02-05T10:24:45.832Z,1014.21
2019-02-05T10:25:45.830Z,1014.22
2019-02-05T10:26:45.792Z,1014.23
2019-02-05T10:27:45.783Z,1014.24
2019-02-05T10:28:45.763Z,1014.27
2019-02-05T10:29:56.350Z,1014.26
2019-02-05T10:30:46.750Z,1014.25
2019-02-05T10:31:45.728Z,1014.25
2019-02-05T10:32:45.738Z,1014.28
2019-02-05T10:33:55.008Z,1014.28
2019-02-05T10:34:46.730Z,1014.34
2019-02-05T10:35:45.720Z,1014.27
2019-02-05T10:36:45.705Z,1014.26
2019-02-05T10:37:45.675Z,1014.28
2019-02-05T10:38:45.652Z,1014.33
2019-02-05T10:39:45.650Z,1014.31
2019-02-05T10:40:45.636Z,1014.29
2019-02-05T10:41:45.656Z,1014.28
2019-02-05T10:42:45.621Z,1014.29
2019-02-05T10:43:45.614Z,1014.37
2019-02-05T10:44:45.593Z,1014.32
2019-02-05T10:45:45.663Z,1014.28
2019-02-05T10:46:45.598Z,1014.34
2019-02-05T10:47:45.550Z,1014.26
2019-02-05T10:48:45.539Z,1014.33
2019-02-05T10:49:46.237Z,1014.28
2019-02-05T10:50:45.552Z,1014.26
2019-02-05T10:51:45.512Z,1014.30
2019-02-05T10:52:45.503Z,1014.26
2019-02-05T10:53:45.505Z,1014.28
2019-02-05T10:54:45.475Z,1014.21
2019-02-05T10:55:45.494Z,1014.25
2019-02-05T10:56:45.490Z,1014.24
2019-02-05T10:57:45.440Z,1014.25
2019-02-05T10:58:45.440Z,1014.28
2019-02-05T10:59:45.416Z,1014.32
2019-02-05T11:00:45.404Z,1014.34
2019-02-05T11:01:45.440Z,1014.34
2019-02-05T11:02:45.388Z,1014.28
2019-02-05T11:03:45.372Z,1014.28
2019-02-05T11:04:45.360Z,1014.29
2019-02-05T11:05:45.360Z,1014.26
2019-02-05T11:06:45.348Z,1014.26
2019-02-05T11:07:45.392Z,1014.32
2019-02-05T11:08:45.328Z,1014.31
2019-02-05T11:09:45.312Z,1014.29
2019-02-05T11:10:45.299Z,1014.31
2019-02-05T11:11:45.307Z,1014.30
2019-02-05T11:12:45.294Z,1014.31
2019-02-05T11:13:45.266Z,1014.33
2019-02-05T11:14:45.257Z,1014.25
2019-02-05T11:15:45.243Z,1014.29
2019-02-05T11:16:45.230Z,1014.27
2019-02-05T11:17:45.255Z,1014.25
2019-02-05T11:18:45.206Z,1014.27
2019-02-05T11:19:45.197Z,1014.24
2019-02-05T11:20:45.185Z,1014.20
2019-02-05T11:21:45.212Z,1014.20
2019-02-05T11:22:45.199Z,1014.23
2019-02-05T11:23:45.153Z,1014.24
2019-02-05T11:24:45.137Z,1014.22
2019-02-05T11:25:45.192Z,1014.26
2019-02-05T11:26:45.269Z,1014.24
2019-02-05T11:27:45.936Z,1014.21
2019-02-05T11:28:45.095Z,1014.24
2019-02-05T11:29:45.089Z,1014.25
2019-02-05T11:30:45.077Z,1014.23
2019-02-05T11:31:45.099Z,1014.27
2019-02-05T11:32:45.054Z,1014.31
2019-02-05T11:33:45.050Z,1014.30
2019-02-05T11:34:45.063Z,1014.31
2019-02-05T11:35:45.044Z,1014.34
2019-02-05T11:36:45.013Z,1014.32
2019-02-05T11:37:45.041Z,1014.33
2019-02-05T11:38:44.988Z,1014.25
2019-02-05T11:39:44.975Z,1014.37
2019-02-05T11:40:44.963Z,1014.33
2019-02-05T11:41:44.956Z,1014.31
2019-02-05T11:42:44.969Z,1014.30
2019-02-05T11:43:44.939Z,1014.30
2019-02-05T11:44:44.921Z,1014.33
2019-02-05T11:45:44.910Z,1014.27
2019-02-05T11:46:44.945Z,1014.23
2019-02-05T11:47:44.933Z,1014.26
2019-02-05T11:48:44.874Z,1014.24
2019-02-05T11:49:44.867Z,1014.27
2019-02-05T11:50:44.859Z,1014.31
2019-02-05T11:51:44.843Z,1014.27
2019-02-05T11:52:44.837Z,1014.21
2019-02-05T11:53:44.863Z,1014.22
2019-02-05T11:54:44.811Z,1014.19
2019-02-05T11:55:44.793Z,1014.24
2019-02-05T11:56:44.789Z,1014.19
2019-02-05T11:57:44.817Z,1014.15
2019-02-05T11:58:44.796Z,1014.19
2019-02-05T11:59:44.750Z,1014.17
2019-02-05T12:00:44.742Z,1014.15
2019-02-05T12:01:44.736Z,1014.07
2019-02-05T12:02:44.739Z,1014.12
2019-02-05T12:03:44.707Z,1014.12
2019-02-05T12:04:44.743Z,1014.07
2019-02-05T12:05:44.682Z,1014.08